Time;durP1;ratioP1;P1;durP2;ratioP2;P2;SDS_P1;SDS_P2;PMS_P1;PMS_P2;Temp;Humidity;BMP_temperature;BMP_pressure;BME280_temperature;BME280_humidity;BME280_pressure;Samples;Min_cycle;Max_cycle;Signal;HPM_P1;HPM_P2
2022/03/30 00:00:57;;;;;;;12.18;4.03;;;10.80;68.10;;;;;;5062905;28;20051;-68
2022/03/30 00:03:25;;;;;;;8.38;3.67;;;10.80;67.90;;;;;;5068429;28;20047;-69
2022/03/30 00:05:52;;;;;;;10.63;4.40;;;10.80;67.70;;;;;;5068558;28;20053;-67
2022/03/30 00:08:22;;;;;;;7.90;3.65;;;10.80;67.90;;;;;;5067563;28;20037;-69
2022/03/30 00:10:49;;;;;;;9.18;4.50;;;10.80;67.80;;;;;;5067398;28;20128;-69
2022/03/30 00:13:16;;;;;;;10.85;4.55;;;10.80;67.80;;;;;;5061352;28;20044;-69
2022/03/30 00:15:43;;;;;;;7.25;3.17;;;10.80;67.70;;;;;;5068004;28;20040;-68
2022/03/30 00:18:10;;;;;;;10.40;3.20;;;10.80;67.80;;;;;;5067370;28;20040;-70
2022/03/30 00:20:38;;;;;;;7.80;3.30;;;10.70;68.10;;;;;;5065957;28;20109;-69
2022/03/30 00:23:06;;;;;;;12.52;4.20;;;10.80;68.00;;;;;;5064937;28;20054;-69
2022/03/30 00:25:33;;;;;;;7.95;4.05;;;10.70;68.10;;;;;;5067599;28;20044;-69
2022/03/30 00:28:02;;;;;;;6.40;3.60;;;10.70;68.20;;;;;;5067134;28;20041;-69
2022/03/30 00:30:29;;;;;;;7.57;3.83;;;10.80;68.30;;;;;;5065721;28;20086;-69
2022/03/30 00:32:57;;;;;;;9.93;3.85;;;10.70;68.20;;;;;;5068262;28;20901;-69
2022/03/30 00:35:24;;;;;;;8.00;3.80;;;10.70;68.00;;;;;;5069308;28;20102;-68
2022/03/30 00:37:52;;;;;;;8.50;3.63;;;10.70;68.00;;;;;;5067996;28;20056;-70
2022/03/30 00:40:19;;;;;;;8.68;4.20;;;10.80;67.70;;;;;;5067391;28;20086;-69
2022/03/30 00:42:47;;;;;;;15.45;4.45;;;10.80;67.30;;;;;;5068090;28;20055;-69
2022/03/30 00:45:18;;;;;;;13.77;5.22;;;10.80;67.30;;;;;;5068774;28;20045;-68
2022/03/30 00:47:46;;;;;;;10.88;4.13;;;10.80;67.20;;;;;;5069555;28;20059;-68
2022/03/30 00:50:16;;;;;;;9.75;3.67;;;10.80;67.10;;;;;;5069260;28;20539;-68
2022/03/30 00:52:43;;;;;;;7.80;4.00;;;10.80;67.20;;;;;;5070635;28;20056;-69
2022/03/30 00:55:13;;;;;;;8.70;4.32;;;10.80;67.10;;;;;;5069414;28;20111;-68
2022/03/30 00:57:41;;;;;;;;;;;10.80;66.90;;;;;;5069731;28;20049;-67
2022/03/30 01:00:12;;;;;;;9.27;4.00;;;10.80;67.00;;;;;;5064546;28;19920;-68
2022/03/30 01:02:41;;;;;;;11.45;4.55;;;10.80;67.10;;;;;;5069833;28;20040;-67
2022/03/30 01:05:08;;;;;;;11.90;4.75;;;10.80;67.00;;;;;;5070342;28;20055;-69
2022/03/30 01:07:35;;;;;;;14.90;5.07;;;10.80;67.10;;;;;;5063622;28;20044;-68
2022/03/30 01:10:03;;;;;;;14.05;5.05;;;10.70;67.10;;;;;;5067301;28;20044;-68
2022/03/30 01:12:34;;;;;;;11.38;5.05;;;10.80;66.80;;;;;;5069896;28;20498;-68
2022/03/30 01:15:01;;;;;;;13.52;5.80;;;10.80;66.70;;;;;;5065835;28;20064;-67
2022/03/30 01:17:29;;;;;;;13.70;6.18;;;10.80;66.30;;;;;;5067849;28;20075;-67
2022/03/30 01:19:56;;;;;;;12.43;5.80;;;10.70;66.10;;;;;;5067970;28;20044;-67
2022/03/30 01:22:24;;;;;;;14.52;6.90;;;10.80;66.20;;;;;;5067719;28;20036;-69
2022/03/30 01:24:51;;;;;;;14.00;5.55;;;10.70;66.20;;;;;;5065613;28;20041;-68
2022/03/30 01:27:18;;;;;;;13.38;5.57;;;10.80;66.00;;;;;;5063105;28;20056;-69
2022/03/30 01:32:30;;;;;;;11.20;5.40;;;10.80;66.00;;;;;;5065813;28;20045;-69
2022/03/30 01:34:59;;;;;;;18.67;6.72;;;10.70;66.00;;;;;;5066232;28;20049;-67
2022/03/30 01:37:28;;;;;;;13.82;6.63;;;10.80;65.90;;;;;;5067762;28;20044;-69
2022/03/30 01:39:57;;;;;;;15.50;6.60;;;10.80;65.80;;;;;;5066416;28;20032;-67
2022/03/30 01:42:24;;;;;;;18.63;6.85;;;10.80;65.70;;;;;;5067087;28;20033;-68
2022/03/30 01:44:52;;;;;;;18.52;7.22;;;10.70;65.70;;;;;;5068221;28;20608;-68
2022/03/30 01:47:19;;;;;;;16.85;7.95;;;10.80;65.80;;;;;;5067906;28;20084;-68
2022/03/30 01:49:46;;;;;;;19.00;8.68;;;10.70;65.80;;;;;;5065752;28;20048;-67
2022/03/30 01:52:16;;;;;;;15.52;6.57;;;10.70;65.70;;;;;;5066892;28;20067;-68
2022/03/30 01:54:45;;;;;;;14.77;7.80;;;10.80;65.60;;;;;;5068455;28;20600;-70
2022/03/30 01:57:13;;;;;;;15.70;6.97;;;10.70;65.60;;;;;;5064789;28;20059;-69
2022/03/30 01:59:41;;;;;;;18.60;8.02;;;10.80;65.60;;;;;;5065643;28;20044;-69
2022/03/30 02:02:08;;;;;;;17.27;7.25;;;10.80;65.60;;;;;;5066202;28;20052;-69
2022/03/30 02:04:36;;;;;;;15.20;7.40;;;10.70;65.60;;;;;;5068912;28;20041;-68
2022/03/30 02:07:04;;;;;;;19.42;8.52;;;10.70;65.60;;;;;;5065340;28;20040;-69
2022/03/30 02:09:32;;;;;;;19.58;7.88;;;10.70;65.70;;;;;;5067065;28;20045;-69
2022/03/30 02:12:01;;;;;;;17.80;8.20;;;10.70;65.80;;;;;;5065106;28;20043;-69
2022/03/30 02:14:28;;;;;;;19.40;8.45;;;10.70;65.80;;;;;;5067513;28;20053;-69
2022/03/30 02:16:56;;;;;;;17.35;8.45;;;10.70;65.80;;;;;;5049222;28;20395;-68
2022/03/30 02:19:23;;;;;;;18.67;8.13;;;10.70;65.80;;;;;;5059632;28;20171;-69
2022/03/30 02:21:50;;;;;;;18.75;8.40;;;10.70;65.80;;;;;;5058231;28;20041;-69
2022/03/30 02:24:17;;;;;;;17.60;7.30;;;10.70;65.80;;;;;;5063893;28;20122;-67
2022/03/30 02:26:45;;;;;;;20.52;9.00;;;10.70;65.90;;;;;;5066845;28;20072;-68
2022/03/30 02:29:13;;;;;;;18.35;8.70;;;10.70;65.90;;;;;;5048217;28;20064;-68
2022/03/30 02:31:41;;;;;;;20.63;9.13;;;10.70;65.80;;;;;;5062199;28;20048;-69
2022/03/30 02:34:08;;;;;;;17.63;8.40;;;10.70;65.80;;;;;;5048858;28;20398;-68
2022/03/30 02:36:35;;;;;;;17.95;8.93;;;10.70;65.50;;;;;;5064916;28;20044;-69
2022/03/30 02:39:03;;;;;;;21.13;9.10;;;10.60;65.50;;;;;;5070390;28;20098;-68
2022/03/30 02:41:30;;;;;;;20.70;9.00;;;10.70;65.50;;;;;;5066805;28;20045;-68
2022/03/30 02:43:57;;;;;;;24.38;9.98;;;10.70;65.30;;;;;;5065019;28;20497;-68
2022/03/30 02:46:25;;;;;;;20.77;9.13;;;10.60;65.20;;;;;;5067926;28;20076;-68
2022/03/30 02:48:52;;;;;;;18.13;8.23;;;10.60;65.10;;;;;;5047338;28;20048;-67
2022/03/30 02:51:19;;;;;;;20.50;9.93;;;10.60;65.00;;;;;;5068771;28;20127;-68
2022/03/30 02:53:46;;;;;;;19.25;9.35;;;10.60;65.20;;;;;;5067892;28;20052;-69
2022/03/30 02:56:13;;;;;;;23.58;9.45;;;10.60;65.10;;;;;;5066386;28;20049;-68
2022/03/30 02:58:40;;;;;;;17.95;9.02;;;10.60;65.30;;;;;;5069163;28;20136;-68
2022/03/30 03:01:07;;;;;;;19.55;9.27;;;10.60;65.50;;;;;;5063258;28;20048;-68
2022/03/30 03:03:35;;;;;;;22.30;9.93;;;10.50;65.90;;;;;;5069459;28;20619;-68
2022/03/30 03:06:02;;;;;;;22.90;9.13;;;10.50;66.20;;;;;;5058418;28;20158;-70
2022/03/30 03:08:29;;;;;;;21.77;9.32;;;10.50;66.40;;;;;;5068523;28;20048;-68
2022/03/30 03:10:57;;;;;;;21.15;9.63;;;10.50;66.60;;;;;;5068327;28;20044;-69
2022/03/30 03:13:25;;;;;;;22.65;10.32;;;10.50;67.00;;;;;;5065686;28;20039;-67
2022/03/30 03:15:52;;;;;;;23.63;9.32;;;10.50;67.10;;;;;;5068651;28;20052;-69
2022/03/30 03:18:20;;;;;;;19.25;9.43;;;10.50;67.30;;;;;;5067304;28;20052;-68
2022/03/30 03:20:49;;;;;;;20.58;8.30;;;10.40;67.50;;;;;;5065973;28;20048;-68
2022/03/30 03:23:17;;;;;;;21.63;9.93;;;10.40;67.70;;;;;;5067328;28;20047;-68
2022/03/30 03:25:45;;;;;;;20.50;8.80;;;10.40;67.80;;;;;;5067067;28;20135;-69
2022/03/30 03:28:14;;;;;;;19.92;9.50;;;10.40;67.90;;;;;;5069952;28;20135;-69
2022/03/30 03:30:42;;;;;;;21.95;9.88;;;10.40;68.10;;;;;;5067441;28;20118;-68
2022/03/30 03:33:10;;;;;;;22.48;10.05;;;10.30;68.30;;;;;;5071055;28;20143;-68
2022/03/30 03:35:37;;;;;;;26.00;10.80;;;10.40;68.50;;;;;;5067303;28;20123;-68
2022/03/30 03:38:08;;;;;;;23.42;10.35;;;10.40;68.50;;;;;;5064963;28;20144;-69
2022/03/30 03:40:36;;;;;;;20.63;10.35;;;10.30;68.50;;;;;;5067448;28;20058;-70
2022/03/30 03:43:05;;;;;;;20.85;9.60;;;10.30;68.50;;;;;;5068293;28;20045;-69
2022/03/30 03:45:32;;;;;;;22.50;10.07;;;10.30;68.50;;;;;;5069942;28;20040;-69
2022/03/30 03:47:59;;;;;;;23.02;9.77;;;10.30;68.40;;;;;;5064305;28;20044;-71
2022/03/30 03:50:27;;;;;;;24.25;10.35;;;10.30;68.40;;;;;;5069325;28;20051;-70
2022/03/30 03:52:55;;;;;;;23.38;10.32;;;10.30;68.50;;;;;;5071100;28;20043;-68
2022/03/30 03:55:23;;;;;;;24.75;9.50;;;10.30;68.50;;;;;;5070786;28;20121;-70
2022/03/30 03:57:50;;;;;;;19.50;8.85;;;10.20;68.60;;;;;;5066532;28;20040;-70
2022/03/30 04:00:18;;;;;;;19.92;9.05;;;10.20;68.50;;;;;;5066451;28;20074;-70
2022/03/30 04:02:45;;;;;;;20.77;9.25;;;10.20;68.40;;;;;;5071369;28;20049;-70
2022/03/30 04:05:14;;;;;;;20.02;9.45;;;10.20;68.40;;;;;;5070397;28;20044;-71
2022/03/30 04:07:41;;;;;;;17.00;8.82;;;10.30;68.20;;;;;;5067994;28;20041;-70
2022/03/30 04:10:09;;;;;;;23.85;11.77;;;10.20;68.30;;;;;;5067509;28;20036;-69
2022/03/30 04:12:38;;;;;;;25.38;10.80;;;10.20;68.00;;;;;;5066504;28;20044;-70
2022/03/30 04:15:07;;;;;;;20.25;9.65;;;10.20;67.80;;;;;;5067538;28;20043;-69
2022/03/30 04:17:33;;;;;;;25.23;10.32;;;10.20;67.50;;;;;;5068251;28;20056;-70
2022/03/30 04:20:01;;;;;;;23.73;10.60;;;10.20;67.60;;;;;;5069575;28;20052;-71
2022/03/30 04:22:28;;;;;;;24.38;11.35;;;10.20;67.70;;;;;;5069103;28;20052;-68
2022/03/30 04:24:55;;;;;;;26.52;10.05;;;10.20;67.60;;;;;;5068975;28;20056;-70
2022/03/30 04:27:22;;;;;;;24.42;10.50;;;10.20;67.60;;;;;;5069565;28;20036;-69
2022/03/30 04:29:50;;;;;;;23.27;10.32;;;10.20;67.60;;;;;;5068515;28;20041;-69
2022/03/30 04:32:17;;;;;;;23.00;9.55;;;10.10;67.70;;;;;;5068937;28;20047;-69
2022/03/30 04:34:44;;;;;;;24.02;10.13;;;10.10;67.60;;;;;;5068213;28;20058;-70
2022/03/30 04:37:11;;;;;;;26.98;11.05;;;10.10;67.60;;;;;;5066871;28;20402;-70
2022/03/30 04:39:38;;;;;;;24.83;10.23;;;10.10;67.60;;;;;;5065940;28;20069;-68
2022/03/30 04:42:06;;;;;;;25.38;11.10;;;10.10;67.80;;;;;;5061619;28;20115;-70
2022/03/30 04:44:33;;;;;;;21.23;9.73;;;10.10;67.90;;;;;;5065300;28;20083;-69
2022/03/30 04:47:01;;;;;;;21.98;9.88;;;10.10;68.00;;;;;;5067485;28;20045;-69
2022/03/30 04:49:28;;;;;;;21.05;10.45;;;10.10;68.10;;;;;;5059456;28;20044;-69
2022/03/30 04:51:55;;;;;;;25.23;11.15;;;10.10;68.30;;;;;;5063814;28;20041;-69
2022/03/30 04:54:22;;;;;;;23.30;9.45;;;10.10;68.50;;;;;;5066307;28;20056;-69
2022/03/30 04:56:51;;;;;;;26.63;12.20;;;10.10;68.60;;;;;;5048593;28;20075;-70
2022/03/30 04:59:19;;;;;;;25.52;11.57;;;10.10;68.80;;;;;;5059821;28;20080;-70
2022/03/30 05:01:46;;;;;;;23.13;9.82;;;10.10;69.00;;;;;;5055088;28;20052;-69
2022/03/30 05:04:15;;;;;;;22.52;10.77;;;10.10;69.20;;;;;;5058960;28;20050;-69
2022/03/30 05:06:42;;;;;;;25.10;11.23;;;10.10;69.40;;;;;;5057850;28;20048;-70
2022/03/30 05:09:09;;;;;;;28.27;11.27;;;10.10;69.90;;;;;;5060128;28;20041;-71
2022/03/30 05:11:36;;;;;;;23.58;11.50;;;10.10;70.00;;;;;;5058995;28;20048;-69
2022/03/30 05:14:02;;;;;;;23.95;11.13;;;10.00;70.40;;;;;;5057852;28;20048;-70
2022/03/30 05:16:29;;;;;;;24.25;10.80;;;10.00;70.60;;;;;;5062335;28;20055;-69
2022/03/30 05:18:56;;;;;;;24.85;11.13;;;10.00;70.80;;;;;;5069063;28;20049;-69
2022/03/30 05:21:25;;;;;;;25.17;11.48;;;10.00;71.10;;;;;;5065092;28;20128;-68
2022/03/30 05:23:52;;;;;;;23.67;10.77;;;10.00;71.30;;;;;;5066256;28;20052;-69
2022/03/30 05:26:19;;;;;;;23.30;10.80;;;10.00;71.30;;;;;;5069981;28;20171;-69
2022/03/30 05:28:46;;;;;;;23.90;10.90;;;10.00;71.80;;;;;;5063659;28;20111;-69
2022/03/30 05:31:13;;;;;;;24.58;10.82;;;9.90;71.90;;;;;;5056395;28;20445;-69
2022/03/30 05:33:40;;;;;;;26.90;11.13;;;9.90;72.00;;;;;;5057692;28;20091;-68
2022/03/30 05:36:08;;;;;;;24.90;10.43;;;9.90;72.00;;;;;;5061764;28;20072;-70
2022/03/30 05:38:37;;;;;;;22.25;11.15;;;9.90;72.10;;;;;;5062736;28;20067;-70
2022/03/30 05:41:04;;;;;;;25.33;10.88;;;9.90;72.30;;;;;;5056546;28;20672;-68
2022/03/30 05:43:31;;;;;;;23.55;12.45;;;9.90;72.40;;;;;;5062448;28;20049;-68
2022/03/30 05:45:58;;;;;;;28.10;10.82;;;10.00;72.60;;;;;;5065675;28;20447;-69
2022/03/30 05:48:26;;;;;;;23.42;11.73;;;9.90;72.60;;;;;;5065623;28;20102;-68
2022/03/30 05:50:55;;;;;;;24.40;10.65;;;9.90;72.70;;;;;;5065351;28;20048;-68
2022/03/30 05:53:22;;;;;;;26.40;10.55;;;9.90;72.80;;;;;;5060966;28;20041;-68
2022/03/30 05:55:51;;;;;;;25.17;10.68;;;9.90;72.90;;;;;;5067754;28;20177;-70
2022/03/30 05:58:18;;;;;;;25.23;10.65;;;9.90;72.90;;;;;;5061882;28;20040;-70
2022/03/30 06:00:46;;;;;;;24.33;12.05;;;9.90;73.00;;;;;;5056605;28;20131;-69
2022/03/30 06:03:12;;;;;;;26.83;11.18;;;9.90;73.10;;;;;;5060690;28;20053;-69
2022/03/30 06:05:40;;;;;;;23.70;11.13;;;9.90;73.30;;;;;;5057841;28;20044;-69
2022/03/30 06:08:09;;;;;;;30.45;12.27;;;9.90;73.60;;;;;;5056371;28;20055;-68
2022/03/30 06:10:37;;;;;;;26.75;11.65;;;9.90;73.90;;;;;;5058435;28;20037;-70
2022/03/30 06:13:05;;;;;;;27.17;11.63;;;9.80;74.30;;;;;;5064081;28;20040;-70
2022/03/30 06:15:33;;;;;;;24.35;11.13;;;9.80;74.40;;;;;;5066461;28;20048;-70
2022/03/30 06:18:00;;;;;;;26.83;11.82;;;9.90;74.70;;;;;;5067693;28;20119;-68
2022/03/30 06:20:27;;;;;;;22.77;10.52;;;9.80;74.90;;;;;;5066378;28;20046;-70
2022/03/30 06:22:56;;;;;;;31.30;11.43;;;9.80;75.20;;;;;;5067060;28;20052;-68
2022/03/30 06:25:24;;;;;;;23.05;11.30;;;9.80;75.20;;;;;;5067980;28;20884;-69
2022/03/30 06:27:52;;;;;;;31.13;12.27;;;9.80;75.30;;;;;;5070335;28;20049;-68
2022/03/30 06:30:21;;;;;;;25.95;11.95;;;9.80;75.40;;;;;;5063807;28;20398;-70
2022/03/30 06:32:49;;;;;;;25.63;11.73;;;9.80;75.50;;;;;;5061456;28;20045;-69
2022/03/30 06:35:18;;;;;;;26.13;11.53;;;9.80;75.70;;;;;;5061243;28;20048;-69
2022/03/30 06:37:46;;;;;;;24.17;11.38;;;9.80;75.70;;;;;;5061930;28;20063;-69
2022/03/30 06:40:13;;;;;;;27.08;12.30;;;9.80;75.90;;;;;;5064000;28;20728;-70
2022/03/30 06:42:41;;;;;;;27.38;12.98;;;9.80;76.30;;;;;;5060156;28;20319;-68
2022/03/30 06:45:10;;;;;;;27.50;13.38;;;9.80;76.30;;;;;;5064214;28;20131;-68
2022/03/30 06:47:39;;;;;;;30.30;12.33;;;9.70;76.40;;;;;;5065785;28;20240;-68
2022/03/30 06:50:07;;;;;;;28.27;13.23;;;9.70;76.50;;;;;;5062775;28;20041;-70
2022/03/30 06:52:35;;;;;;;32.90;13.13;;;9.70;76.80;;;;;;5068122;28;20052;-68
2022/03/30 06:55:04;;;;;;;25.13;11.95;;;9.70;76.90;;;;;;5070270;28;20068;-68
2022/03/30 06:57:31;;;;;;;32.95;13.43;;;9.70;77.10;;;;;;5067787;28;20049;-69
2022/03/30 06:59:59;;;;;;;28.20;12.00;;;9.70;77.10;;;;;;5063673;28;20056;-68
2022/03/30 07:02:26;;;;;;;26.30;12.65;;;9.60;77.20;;;;;;5057898;28;20041;-68
2022/03/30 07:04:54;;;;;;;27.90;13.02;;;9.60;77.20;;;;;;5064311;28;20048;-68
2022/03/30 07:10:16;;;;;;;32.50;13.32;;;9.60;77.40;;;;;;5059164;28;20048;-68
2022/03/30 07:12:43;;;;;;;31.65;13.10;;;9.60;77.60;;;;;;5061284;28;20040;-69
2022/03/30 07:15:11;;;;;;;31.35;13.93;;;9.60;77.90;;;;;;5068192;28;20114;-68
2022/03/30 07:17:45;;;;;;;33.22;13.88;;;9.60;78.00;;;;;;5066967;28;20067;-68
2022/03/30 07:20:15;;;;;;;28.85;12.50;;;9.60;78.10;;;;;;5070508;28;20050;-69
2022/03/30 07:22:42;;;;;;;28.40;13.20;;;9.60;78.30;;;;;;5065809;28;20067;-69
2022/03/30 07:25:10;;;;;;;29.73;12.75;;;9.60;78.50;;;;;;5062985;28;20058;-69
2022/03/30 07:27:39;;;;;;;29.40;13.65;;;9.60;78.80;;;;;;5063212;28;20045;-69
2022/03/30 07:30:08;;;;;;;28.35;12.40;;;9.60;78.90;;;;;;5063548;28;20405;-68
2022/03/30 07:32:36;;;;;;;30.42;13.25;;;9.60;78.90;;;;;;5058623;28;20630;-69
2022/03/30 07:35:03;;;;;;;31.98;13.00;;;9.60;79.00;;;;;;5061843;28;20055;-69
2022/03/30 07:37:32;;;;;;;29.58;13.70;;;9.60;78.80;;;;;;5065128;28;20055;-70
2022/03/30 07:39:59;;;;;;;38.17;13.35;;;9.70;78.80;;;;;;5071433;28;20059;-68
2022/03/30 07:42:26;;;;;;;29.02;13.40;;;9.70;78.80;;;;;;5067066;28;20694;-71
2022/03/30 07:44:53;;;;;;;32.72;14.02;;;9.70;78.90;;;;;;5065314;28;20051;-67
2022/03/30 07:47:20;;;;;;;33.42;13.00;;;9.70;79.00;;;;;;5068233;28;20052;-69
2022/03/30 07:49:47;;;;;;;29.75;12.82;;;9.70;79.00;;;;;;5070742;28;20048;-69
2022/03/30 07:52:15;;;;;;;26.75;12.27;;;9.70;79.00;;;;;;5070265;28;20032;-69
2022/03/30 07:54:44;;;;;;;32.28;14.20;;;9.70;79.10;;;;;;5053515;28;20036;-68
2022/03/30 07:57:11;;;;;;;28.02;12.98;;;9.60;79.30;;;;;;5058360;28;20048;-68
2022/03/30 07:59:38;;;;;;;34.92;13.95;;;9.70;79.30;;;;;;5062294;28;20056;-69
2022/03/30 08:02:05;;;;;;;34.80;13.13;;;9.70;79.20;;;;;;5059003;28;20163;-69
2022/03/30 08:04:32;;;;;;;27.13;12.75;;;9.70;79.40;;;;;;5060445;28;20942;-70
2022/03/30 08:06:59;;;;;;;30.52;12.52;;;9.70;79.40;;;;;;5060149;28;20051;-69
2022/03/30 08:09:27;;;;;;;28.35;13.20;;;9.70;79.30;;;;;;5058791;28;20347;-68
2022/03/30 08:11:55;;;;;;;32.50;13.15;;;9.80;79.30;;;;;;5060074;28;20354;-69
2022/03/30 08:14:22;;;;;;;28.45;12.63;;;9.80;79.40;;;;;;5056567;28;20405;-69
2022/03/30 08:16:49;;;;;;;29.85;13.10;;;9.80;79.40;;;;;;5061535;28;20036;-68
2022/03/30 08:19:16;;;;;;;30.13;12.80;;;9.90;79.50;;;;;;5060370;28;20121;-69
2022/03/30 08:24:24;;;;;;;28.20;13.05;;;9.90;79.50;;;;;;5052080;28;20551;-70
2022/03/30 08:26:51;;;;;;;27.33;13.60;;;10.00;79.40;;;;;;5070049;28;20037;-69
2022/03/30 08:29:19;;;;;;;29.23;13.60;;;10.00;79.50;;;;;;5064540;28;20046;-69
2022/03/30 08:31:48;;;;;;;29.23;12.70;;;10.00;79.50;;;;;;5068216;28;20048;-69
2022/03/30 08:34:15;;;;;;;28.70;12.18;;;10.00;79.30;;;;;;5065825;28;20033;-68
2022/03/30 08:36:43;;;;;;;23.80;10.73;;;10.00;79.00;;;;;;5070409;28;20123;-69
2022/03/30 08:39:11;;;;;;;26.80;12.38;;;10.10;78.90;;;;;;5058857;28;20106;-68
2022/03/30 08:41:42;;;;;;;27.80;13.35;;;10.10;78.80;;;;;;5061521;28;20037;-70
2022/03/30 08:44:09;;;;;;;25.35;10.98;;;10.10;78.80;;;;;;5061439;28;20551;-69
2022/03/30 08:46:38;;;;;;;24.02;11.30;;;10.10;78.80;;;;;;5057182;28;20064;-69
2022/03/30 08:49:05;;;;;;;24.48;11.80;;;10.20;78.60;;;;;;5060527;28;20409;-68
2022/03/30 08:51:39;;;;;;;27.65;11.70;;;10.20;78.50;;;;;;5060675;28;20049;-68
2022/03/30 08:54:07;;;;;;;24.77;12.32;;;10.20;78.50;;;;;;5063691;28;20124;-68
2022/03/30 08:56:34;;;;;;;25.83;11.45;;;10.20;78.60;;;;;;5067008;28;20072;-69
2022/03/30 08:59:02;;;;;;;29.15;11.27;;;10.20;78.50;;;;;;5065487;28;20052;-69
2022/03/30 09:01:33;;;;;;;26.13;11.73;;;10.20;78.30;;;;;;5063286;28;20052;-68
2022/03/30 09:04:04;;;;;;;23.23;9.93;;;10.20;78.40;;;;;;5065410;28;20049;-70
2022/03/30 09:06:40;;;;;;;21.38;9.98;;;10.30;78.70;;;;;;5068412;28;20057;-69
2022/03/30 09:09:07;;;;;;;24.40;11.00;;;10.40;78.70;;;;;;5059950;28;20474;-68
2022/03/30 09:11:45;;;;;;;21.08;9.70;;;10.50;78.90;;;;;;5039777;28;20058;-67
2022/03/30 09:14:13;;;;;;;20.77;9.50;;;10.60;79.10;;;;;;5057799;28;20036;-69
2022/03/30 09:16:42;;;;;;;24.52;9.43;;;10.70;78.70;;;;;;5060167;28;20040;-68
2022/03/30 09:19:12;;;;;;;25.10;10.32;;;10.80;78.50;;;;;;5062517;28;20443;-69
2022/03/30 09:21:43;;;;;;;20.95;10.35;;;10.90;78.10;;;;;;5040162;28;20058;-68
2022/03/30 09:24:11;;;;;;;21.20;9.57;;;10.90;78.20;;;;;;5062571;28;20124;-68
2022/03/30 09:26:39;;;;;;;20.98;10.10;;;11.00;77.90;;;;;;5066303;28;20046;-68
2022/03/30 09:29:07;;;;;;;24.20;9.07;;;11.10;77.60;;;;;;5066169;28;20462;-69
2022/03/30 09:31:36;;;;;;;18.88;8.65;;;11.10;76.80;;;;;;5062401;28;20037;-69
2022/03/30 09:34:04;;;;;;;20.08;8.43;;;11.20;76.70;;;;;;5063274;28;20064;-68
2022/03/30 09:36:34;;;;;;;18.27;7.68;;;11.20;76.50;;;;;;5065327;28;20640;-69
2022/03/30 09:39:03;;;;;;;15.45;7.00;;;11.20;76.40;;;;;;5046546;28;20055;-68
2022/03/30 09:41:45;;;;;;;16.15;8.00;;;11.30;76.10;;;;;;5058313;28;20051;-70
2022/03/30 09:44:12;;;;;;;16.02;7.97;;;11.30;75.90;;;;;;5057287;28;20124;-68
2022/03/30 09:46:53;;;;;;;20.63;8.27;;;11.30;75.80;;;;;;5057204;28;20071;-69
2022/03/30 09:49:42;;;;;;;17.20;8.52;;;11.40;75.20;;;;;;5059976;28;20048;-70
2022/03/30 09:52:19;;;;;;;16.73;8.27;;;11.40;74.80;;;;;;5051450;28;20803;-69
2022/03/30 09:54:49;;;;;;;16.17;6.97;;;11.30;75.00;;;;;;5058091;28;20052;-69
2022/03/30 09:57:19;;;;;;;17.52;8.40;;;11.40;75.20;;;;;;5064977;28;20032;-70
2022/03/30 10:00:02;;;;;;;16.40;7.57;;;11.40;74.90;;;;;;5049037;28;20137;-69
2022/03/30 10:02:36;;;;;;;14.43;6.97;;;11.40;74.50;;;;;;5061930;28;20107;-68
2022/03/30 10:05:05;;;;;;;16.35;6.45;;;11.50;74.30;;;;;;5065519;28;20055;-69
2022/03/30 10:07:34;;;;;;;17.35;7.85;;;11.50;74.50;;;;;;5059758;28;20049;-70
2022/03/30 10:10:02;;;;;;;16.80;7.80;;;11.50;74.70;;;;;;5063389;28;20121;-71
2022/03/30 10:12:30;;;;;;;16.63;6.88;;;11.60;73.80;;;;;;5042053;28;20477;-68
2022/03/30 10:14:57;;;;;;;13.77;7.38;;;11.60;73.60;;;;;;5061440;28;20482;-69
2022/03/30 10:17:26;;;;;;;13.73;6.60;;;11.60;73.80;;;;;;5059562;28;20059;-68
2022/03/30 10:19:57;;;;;;;16.30;7.45;;;11.70;73.30;;;;;;5058081;28;20490;-70
2022/03/30 10:22:40;;;;;;;16.55;8.07;;;11.70;73.10;;;;;;5059656;28;20036;-69
2022/03/30 10:25:18;;;;;;;13.00;6.57;;;11.80;72.70;;;;;;5059506;28;20053;-68
2022/03/30 10:27:53;;;;;;;15.32;6.53;;;11.90;72.60;;;;;;5064075;28;20075;-69
2022/03/30 10:30:26;;;;;;;13.07;6.93;;;11.90;72.50;;;;;;5055934;28;20037;-70
2022/03/30 10:32:58;;;;;;;14.65;6.55;;;12.10;72.10;;;;;;5063242;28;20055;-70
2022/03/30 10:35:38;;;;;;;13.13;6.32;;;12.20;72.00;;;;;;5068375;28;20051;-69
2022/03/30 10:38:07;;;;;;;15.05;5.78;;;12.30;71.30;;;;;;5062703;28;20049;-70
2022/03/30 10:40:34;;;;;;;11.65;5.22;;;12.40;71.40;;;;;;5067733;28;20067;-69
2022/03/30 10:43:05;;;;;;;12.82;6.13;;;12.50;71.70;;;;;;5063844;28;20047;-70
2022/03/30 10:45:35;;;;;;;;;;;12.60;70.90;;;;;;5066471;28;20063;-69
2022/03/30 10:48:17;;;;;;;10.60;4.60;;;12.60;69.90;;;;;;5066672;28;20027;-70
2022/03/30 10:50:46;;;;;;;10.85;5.63;;;12.60;70.10;;;;;;5065354;28;20501;-68
2022/03/30 10:53:42;;;;;;;13.43;5.27;;;12.60;69.60;;;;;;5060967;28;20059;-69
2022/03/30 10:56:32;;;;;;;10.93;5.30;;;12.60;69.60;;;;;;5064943;28;20033;-69
2022/03/30 10:59:16;;;;;;;11.07;5.15;;;12.60;69.40;;;;;;5070418;28;20044;-69
2022/03/30 11:01:46;;;;;;;11.25;5.70;;;12.60;68.90;;;;;;5069980;28;20127;-69
2022/03/30 11:04:24;;;;;;;10.30;5.65;;;12.50;68.00;;;;;;5072688;28;20040;-68
2022/03/30 11:07:38;;;;;;;10.65;4.85;;;12.40;68.50;;;;;;5070065;28;20048;-68
2022/03/30 11:10:24;;;;;;;10.90;5.40;;;12.40;68.10;;;;;;5066688;28;20057;-69
2022/03/30 11:13:06;;;;;;;12.13;5.18;;;12.30;68.10;;;;;;5067975;28;20051;-69
2022/03/30 11:16:11;;;;;;;11.93;4.72;;;12.30;68.50;;;;;;5068499;28;20379;-69
2022/03/30 11:18:57;;;;;;;11.80;4.85;;;12.30;68.50;;;;;;5069612;28;20466;-69
2022/03/30 11:21:25;;;;;;;10.77;4.88;;;12.40;68.10;;;;;;5068221;28;20063;-69
2022/03/30 11:24:02;;;;;;;10.02;4.82;;;12.40;67.80;;;;;;5069683;28;20046;-69
2022/03/30 11:27:20;;;;;;;11.25;5.47;;;12.40;67.50;;;;;;5070683;28;20086;-68
2022/03/30 11:30:14;;;;;;;9.43;4.50;;;12.40;67.60;;;;;;5047147;28;20060;-69
2022/03/30 11:33:06;;;;;;;11.63;5.63;;;12.40;67.90;;;;;;5065672;28;20092;-68
2022/03/30 11:35:43;;;;;;;10.93;5.05;;;12.40;67.80;;;;;;5068126;28;20045;-68
2022/03/30 11:38:24;;;;;;;10.77;5.47;;;12.30;67.60;;;;;;5070105;28;20401;-68
2022/03/30 11:40:52;;;;;;;;;;;12.40;67.20;;;;;;5051296;28;20408;-69
2022/03/30 11:43:22;;;;;;;9.75;4.00;;;12.30;66.80;;;;;;5065212;28;20561;-69
2022/03/30 11:45:51;;;;;;;9.13;4.43;;;12.30;66.90;;;;;;5068340;28;20041;-69
2022/03/30 11:48:19;;;;;;;9.93;5.13;;;12.20;66.80;;;;;;5069724;28;20048;-69
2022/03/30 11:50:48;;;;;;;10.15;5.15;;;12.20;67.10;;;;;;5070637;28;20044;-68
2022/03/30 11:53:20;;;;;;;8.88;4.30;;;12.30;67.40;;;;;;5070636;28;20048;-67
2022/03/30 11:55:54;;;;;;;10.27;4.50;;;12.30;66.80;;;;;;5070359;28;20051;-68
2022/03/30 11:58:29;;;;;;;13.15;5.75;;;12.20;66.90;;;;;;5070499;28;20067;-69
2022/03/30 12:00:59;;;;;;;8.48;4.43;;;12.30;67.10;;;;;;5067457;28;20068;-68
2022/03/30 12:03:27;;;;;;;12.35;4.97;;;12.20;67.00;;;;;;5070245;28;20064;-69
2022/03/30 12:05:56;;;;;;;9.98;4.28;;;12.20;66.80;;;;;;5069978;28;20564;-69
2022/03/30 12:08:24;;;;;;;8.60;4.63;;;12.20;67.00;;;;;;5069215;28;20121;-67
2022/03/30 12:10:58;;;;;;;7.05;3.97;;;12.20;66.90;;;;;;5070280;28;20482;-68
2022/03/30 12:13:26;;;;;;;13.10;4.93;;;12.20;66.90;;;;;;5066251;28;20143;-69
2022/03/30 12:16:05;;;;;;;11.65;4.95;;;12.20;67.20;;;;;;5068158;28;20052;-69
2022/03/30 12:18:34;;;;;;;13.45;5.53;;;12.20;67.40;;;;;;5070764;28;20076;-68
2022/03/30 12:21:01;;;;;;;11.50;5.35;;;12.20;67.60;;;;;;5069779;28;20045;-69
2022/03/30 12:23:29;;;;;;;11.18;5.03;;;12.20;67.70;;;;;;5069538;28;20162;-69
2022/03/30 12:25:56;;;;;;;16.40;6.60;;;12.20;68.00;;;;;;5071196;28;20048;-68
2022/03/30 12:28:30;;;;;;;12.55;7.50;;;12.10;68.20;;;;;;5070542;28;20486;-68
2022/03/30 12:30:57;;;;;;;14.98;6.55;;;12.00;68.30;;;;;;5069577;28;20105;-69
2022/03/30 12:33:26;;;;;;;15.05;6.45;;;11.90;68.50;;;;;;5070468;28;20112;-68
2022/03/30 12:35:54;;;;;;;14.15;6.50;;;11.80;68.70;;;;;;5069534;28;20080;-69
2022/03/30 12:38:24;;;;;;;18.33;7.25;;;11.70;68.90;;;;;;5069495;28;20053;-69
2022/03/30 12:40:53;;;;;;;14.77;7.53;;;11.60;69.10;;;;;;5070904;28;20098;-69
2022/03/30 12:43:26;;;;;;;15.20;6.90;;;11.50;69.40;;;;;;5070103;28;20067;-69
2022/03/30 12:45:59;;;;;;;13.88;7.13;;;11.60;69.30;;;;;;5064614;28;20508;-68
2022/03/30 12:48:30;;;;;;;16.10;7.03;;;11.60;69.10;;;;;;5069790;28;20102;-67
2022/03/30 12:51:00;;;;;;;;;;;11.60;69.40;;;;;;5069992;28;20040;-67
2022/03/30 12:53:31;;;;;;;14.77;7.38;;;11.50;69.70;;;;;;5066698;28;19967;-69
2022/03/30 12:56:12;;;;;;;16.55;7.45;;;11.40;70.00;;;;;;5065372;28;20059;-69
2022/03/30 12:58:51;;;;;;;17.30;7.07;;;11.40;70.20;;;;;;5068294;28;20057;-69